createdAt,value
2018-03-15T00:02:17.989Z,11.27
2018-03-15T00:04:45.504Z,12.87
2018-03-15T00:07:13.032Z,13.27
2018-03-15T00:09:40.576Z,12.30
2018-03-15T00:12:08.079Z,13.57
2018-03-15T00:14:35.631Z,13.87
2018-03-15T00:17:03.244Z,12.70
2018-03-15T00:19:30.791Z,12.13
2018-03-15T00:21:58.752Z,13.87
2018-03-15T00:24:26.334Z,13.00
2018-03-15T00:26:54.240Z,13.77
2018-03-15T00:29:21.801Z,12.30
2018-03-15T00:31:49.318Z,12.70
2018-03-15T00:34:16.888Z,12.60
2018-03-15T00:36:44.400Z,13.20
2018-03-15T00:39:12.343Z,12.50
2018-03-15T00:41:40.279Z,13.73
2018-03-15T00:44:07.843Z,14.73
2018-03-15T00:46:35.652Z,14.93
2018-03-15T00:49:03.586Z,16.90
2018-03-15T00:51:31.298Z,13.93
2018-03-15T00:53:59.226Z,15.57
2018-03-15T00:56:26.762Z,15.00
2018-03-15T00:58:54.275Z,16.30
2018-03-15T01:01:22.203Z,15.43
2018-03-15T01:03:49.733Z,15.27
2018-03-15T01:06:17.471Z,17.07
2018-03-15T01:08:45.010Z,15.40
2018-03-15T01:11:12.627Z,15.67
2018-03-15T01:13:40.139Z,15.40
2018-03-15T01:16:08.151Z,14.17
2018-03-15T01:18:35.668Z,13.07
2018-03-15T01:21:03.592Z,13.73
2018-03-15T01:23:31.138Z,14.40
2018-03-15T01:25:58.655Z,13.60
2018-03-15T01:28:26.190Z,13.07
2018-03-15T01:30:54.118Z,14.97
2018-03-15T01:33:21.653Z,14.17
2018-03-15T01:35:49.173Z,15.40
2018-03-15T01:38:16.716Z,14.93
2018-03-15T01:40:44.240Z,15.63
2018-03-15T01:43:11.783Z,13.97
2018-03-15T01:45:39.299Z,15.73
2018-03-15T01:48:06.845Z,15.93
2018-03-15T01:50:34.767Z,14.07
2018-03-15T01:53:02.325Z,15.70
2018-03-15T01:55:29.843Z,14.57
2018-03-15T01:57:57.385Z,15.90
2018-03-15T02:00:24.892Z,14.77
2018-03-15T02:02:52.414Z,16.47
2018-03-15T02:05:20.540Z,16.80
2018-03-15T02:07:48.061Z,14.53
2018-03-15T02:10:16.022Z,15.17
2018-03-15T02:12:43.931Z,15.07
2018-03-15T02:15:11.458Z,15.00
2018-03-15T02:17:39.368Z,15.07
2018-03-15T02:20:06.910Z,15.23
2018-03-15T02:22:34.453Z,12.47
2018-03-15T02:25:01.992Z,15.67
2018-03-15T02:27:30.315Z,12.13
2018-03-15T02:29:57.926Z,12.97
2018-03-15T02:32:25.847Z,13.73
2018-03-15T02:34:53.513Z,12.53
2018-03-15T02:37:21.058Z,12.17
2018-03-15T02:39:48.591Z,12.83
2018-03-15T02:42:16.536Z,11.77
2018-03-15T02:44:44.464Z,12.53
2018-03-15T02:47:12.015Z,12.93
2018-03-15T02:49:39.928Z,13.00
2018-03-15T02:52:07.875Z,12.50
2018-03-15T02:54:35.420Z,12.43
2018-03-15T02:57:02.978Z,13.33
2018-03-15T02:59:30.503Z,12.73
2018-03-15T03:01:58.038Z,12.93
2018-03-15T03:04:25.577Z,12.77
2018-03-15T03:06:53.536Z,12.73
2018-03-15T03:09:21.188Z,12.77
2018-03-15T03:11:49.114Z,12.47
2018-03-15T03:14:16.642Z,12.33
2018-03-15T03:16:44.587Z,12.43
2018-03-15T03:19:12.108Z,12.23
2018-03-15T03:21:40.069Z,12.67
2018-03-15T03:24:07.600Z,12.57
2018-03-15T03:26:35.515Z,13.73
2018-03-15T03:29:03.084Z,12.17
2018-03-15T03:31:30.651Z,13.53
2018-03-15T03:33:58.516Z,11.80
2018-03-15T03:36:26.026Z,13.57
2018-03-15T03:38:53.649Z,12.03
2018-03-15T03:41:21.299Z,11.67
2018-03-15T03:43:48.838Z,11.80
2018-03-15T03:46:17.392Z,12.60
2018-03-15T03:48:44.949Z,12.50
2018-03-15T03:51:12.580Z,12.63
2018-03-15T03:53:40.402Z,12.73
2018-03-15T03:56:07.953Z,13.80
2018-03-15T03:58:35.494Z,11.93
2018-03-15T04:01:03.044Z,14.07
2018-03-15T04:03:30.943Z,13.03
2018-03-15T04:05:58.486Z,12.83
2018-03-15T04:08:26.016Z,16.63
2018-03-15T04:10:53.936Z,13.17
2018-03-15T04:13:21.440Z,15.57
2018-03-15T04:15:49.410Z,14.57
2018-03-15T04:18:16.902Z,13.30
2018-03-15T04:20:44.444Z,15.70
2018-03-15T04:23:12.036Z,14.40
2018-03-15T04:25:39.608Z,13.03
2018-03-15T04:28:07.122Z,14.23
2018-03-15T04:30:34.672Z,15.17
2018-03-15T04:33:02.204Z,13.67
2018-03-15T04:35:29.815Z,13.27
2018-03-15T04:37:57.326Z,14.57
2018-03-15T04:40:25.247Z,12.83
2018-03-15T04:42:52.808Z,16.37
2018-03-15T04:45:20.720Z,12.73
2018-03-15T04:47:48.642Z,13.30
2018-03-15T04:50:16.162Z,13.73
2018-03-15T04:52:44.103Z,13.10
2018-03-15T04:55:11.631Z,12.13
2018-03-15T04:57:39.216Z,13.33
2018-03-15T05:00:06.749Z,12.40
2018-03-15T05:02:34.296Z,12.83
2018-03-15T05:05:01.975Z,12.53
2018-03-15T05:07:29.508Z,12.13
2018-03-15T05:09:57.030Z,12.03
2018-03-15T05:12:24.980Z,11.87
2018-03-15T05:14:52.501Z,14.10
2018-03-15T05:17:20.059Z,11.80
2018-03-15T05:19:47.586Z,12.37
2018-03-15T05:22:15.120Z,10.67
2018-03-15T05:24:42.631Z,13.30
2018-03-15T05:27:10.338Z,11.37
2018-03-15T05:29:37.999Z,14.70
2018-03-15T05:32:06.013Z,11.83
2018-03-15T05:34:33.530Z,11.30
2018-03-15T05:37:01.474Z,11.50
2018-03-15T05:39:29.103Z,12.20
2018-03-15T05:41:56.620Z,15.13
2018-03-15T05:44:24.635Z,11.83
2018-03-15T05:46:52.151Z,11.47
2018-03-15T05:49:20.094Z,11.30
2018-03-15T05:51:47.724Z,12.37
2018-03-15T05:54:15.286Z,11.57
2018-03-15T05:56:42.794Z,11.57
2018-03-15T05:59:10.743Z,13.37
2018-03-15T06:01:38.778Z,11.93
2018-03-15T06:04:06.426Z,11.87
2018-03-15T06:09:49.316Z,11.70
2018-03-15T06:12:17.254Z,11.77
2018-03-15T06:14:44.814Z,13.63
2018-03-15T06:17:12.323Z,11.37
2018-03-15T06:19:40.387Z,11.27
2018-03-15T06:22:08.307Z,13.80
2018-03-15T06:24:35.822Z,12.27
2018-03-15T06:27:03.781Z,11.90
2018-03-15T06:29:31.741Z,11.43
2018-03-15T06:32:00.044Z,11.83
2018-03-15T06:34:27.563Z,11.57
2018-03-15T06:36:55.119Z,13.97
2018-03-15T06:39:23.587Z,12.37
2018-03-15T06:41:51.139Z,12.53
2018-03-15T06:44:18.656Z,10.23
2018-03-15T06:46:46.202Z,10.33
2018-03-15T06:49:14.120Z,9.07
2018-03-15T06:51:41.672Z,10.17
2018-03-15T06:54:09.174Z,9.80
2018-03-15T06:56:37.075Z,9.70
2018-03-15T06:59:04.617Z,9.27
2018-03-15T07:01:32.137Z,10.07
2018-03-15T07:03:59.685Z,11.57
2018-03-15T07:06:27.205Z,9.50
2018-03-15T07:08:54.739Z,9.27
2018-03-15T07:11:22.631Z,8.93
2018-03-15T07:13:50.186Z,9.37
2018-03-15T07:16:17.703Z,8.77
2018-03-15T07:18:45.247Z,8.17
2018-03-15T07:21:12.871Z,7.93
2018-03-15T07:23:40.415Z,8.03
2018-03-15T07:26:07.923Z,7.77
2018-03-15T07:28:35.447Z,9.70
2018-03-15T07:31:03.012Z,7.13
2018-03-15T07:33:30.541Z,7.83
2018-03-15T07:35:58.206Z,7.13
2018-03-15T07:38:25.728Z,6.83
2018-03-15T07:40:53.252Z,6.90
2018-03-15T07:43:20.793Z,6.27
2018-03-15T07:45:48.346Z,7.70
2018-03-15T07:48:15.862Z,6.43
2018-03-15T07:50:43.396Z,5.73
2018-03-15T07:53:10.911Z,5.53
2018-03-15T07:55:38.556Z,5.83
2018-03-15T07:58:06.484Z,5.87
2018-03-15T08:00:34.006Z,5.47
2018-03-15T08:03:01.927Z,4.60
2018-03-15T08:05:29.840Z,4.30
2018-03-15T08:07:57.363Z,5.20
2018-03-15T08:10:24.884Z,4.03
2018-03-15T08:12:52.456Z,3.97
2018-03-15T08:15:20.109Z,4.23
2018-03-15T08:17:47.642Z,4.13
2018-03-15T08:20:15.167Z,3.87
2018-03-15T08:22:44.891Z,4.40
2018-03-15T08:25:12.396Z,3.53
2018-03-15T08:27:39.933Z,4.03
2018-03-15T08:30:07.451Z,4.10
2018-03-15T08:32:35.386Z,3.70
2018-03-15T08:35:02.938Z,3.80
2018-03-15T08:37:31.285Z,4.53
2018-03-15T08:39:58.816Z,3.90
2018-03-15T08:42:26.345Z,4.03
2018-03-15T08:44:53.871Z,3.30
2018-03-15T08:47:21.522Z,3.93
2018-03-15T08:49:49.075Z,4.30
2018-03-15T08:52:16.988Z,3.60
2018-03-15T08:54:44.543Z,3.70
2018-03-15T08:57:12.487Z,3.50
2018-03-15T08:59:40.045Z,3.63
2018-03-15T09:02:07.579Z,4.10
2018-03-15T09:04:35.108Z,4.17
2018-03-15T09:07:03.019Z,3.77
2018-03-15T09:09:30.583Z,3.80
2018-03-15T09:11:58.137Z,2.90
2018-03-15T09:14:25.668Z,3.17
2018-03-15T09:16:53.262Z,3.50
2018-03-15T09:19:20.907Z,5.00
2018-03-15T09:21:48.436Z,3.53
2018-03-15T09:24:16.348Z,3.33
2018-03-15T09:26:43.964Z,3.70
2018-03-15T09:29:12.065Z,3.93
2018-03-15T09:31:39.596Z,3.70
2018-03-15T09:34:07.138Z,4.27
2018-03-15T09:36:35.087Z,3.63
2018-03-15T09:39:03.016Z,4.03
2018-03-15T09:41:30.577Z,3.43
2018-03-15T09:43:58.183Z,3.40
2018-03-15T09:46:26.143Z,4.40
2018-03-15T09:48:54.172Z,3.97
2018-03-15T09:51:21.748Z,4.07
2018-03-15T09:53:49.267Z,4.40
2018-03-15T09:56:16.796Z,3.83
2018-03-15T09:58:44.839Z,4.60
2018-03-15T10:01:12.408Z,4.50
2018-03-15T10:03:39.951Z,3.90
2018-03-15T10:06:07.478Z,4.50
2018-03-15T10:08:35.057Z,3.60
2018-03-15T10:11:02.590Z,4.03
2018-03-15T10:13:30.531Z,3.90
2018-03-15T10:15:58.563Z,4.07
2018-03-15T10:18:26.123Z,4.10
2018-03-15T10:20:53.653Z,3.80
2018-03-15T10:23:21.217Z,3.93
2018-03-15T10:25:48.767Z,4.83
2018-03-15T10:28:16.305Z,4.10
2018-03-15T10:30:44.015Z,3.83
2018-03-15T10:33:17.323Z,4.00
2018-03-15T10:35:44.883Z,4.10
2018-03-15T10:38:12.449Z,3.13
2018-03-15T10:40:39.971Z,4.13
2018-03-15T10:43:07.706Z,3.80
2018-03-15T10:45:35.280Z,3.93
2018-03-15T10:48:02.880Z,3.77
2018-03-15T10:50:30.351Z,3.83
2018-03-15T10:52:58.309Z,3.13
2018-03-15T10:55:25.878Z,3.33
2018-03-15T10:57:53.852Z,2.77
2018-03-15T11:00:27.060Z,3.40
2018-03-15T11:02:54.601Z,3.27
2018-03-15T11:05:36.830Z,2.90
2018-03-15T11:08:10.371Z,3.33
2018-03-15T11:10:37.928Z,3.20
2018-03-15T11:13:05.454Z,3.50
2018-03-15T11:15:33.012Z,2.80
2018-03-15T11:18:00.748Z,3.67
2018-03-15T11:20:28.371Z,2.93
2018-03-15T11:22:55.896Z,2.80
2018-03-15T11:25:23.444Z,3.20
2018-03-15T11:27:50.979Z,3.77
2018-03-15T11:30:18.931Z,3.27
2018-03-15T11:32:46.443Z,3.13
2018-03-15T11:35:14.187Z,2.93
2018-03-15T11:37:41.744Z,2.90
2018-03-15T11:40:09.325Z,3.03
2018-03-15T11:42:36.875Z,3.20
2018-03-15T11:45:04.504Z,3.10
2018-03-15T11:47:32.443Z,3.10
2018-03-15T11:49:59.967Z,3.37
2018-03-15T11:52:27.537Z,3.13
2018-03-15T11:54:55.073Z,3.33
2018-03-15T11:57:22.628Z,3.20
2018-03-15T11:59:50.153Z,3.23
2018-03-15T12:02:17.711Z,3.30
2018-03-15T12:04:45.701Z,3.20
2018-03-15T12:07:13.615Z,3.90
2018-03-15T12:09:41.172Z,3.87
2018-03-15T12:12:08.706Z,3.13
2018-03-15T12:14:36.267Z,3.87
2018-03-15T12:17:03.799Z,3.30
2018-03-15T12:19:31.742Z,3.40
2018-03-15T12:21:59.268Z,3.33
2018-03-15T12:24:26.866Z,3.33
2018-03-15T12:26:54.387Z,3.03
2018-03-15T12:29:21.928Z,3.20
2018-03-15T12:31:49.448Z,3.07
2018-03-15T12:34:17.058Z,3.00
2018-03-15T12:36:44.591Z,2.80
2018-03-15T12:39:12.519Z,2.87
2018-03-15T12:41:40.052Z,3.30
2018-03-15T12:44:07.616Z,3.17
2018-03-15T12:46:35.134Z,3.17
2018-03-15T12:49:03.046Z,2.90
2018-03-15T12:51:30.804Z,3.70
2018-03-15T12:53:58.363Z,2.97
2018-03-15T12:56:25.907Z,3.00
2018-03-15T12:58:53.433Z,2.93
2018-03-15T13:01:21.362Z,2.67
2018-03-15T13:03:49.014Z,2.80
2018-03-15T13:06:16.549Z,2.80
2018-03-15T13:08:44.071Z,2.57
2018-03-15T13:11:12.027Z,2.63
2018-03-15T13:13:39.531Z,2.80
2018-03-15T13:16:07.162Z,3.00
2018-03-15T13:18:35.152Z,2.70
2018-03-15T13:21:02.699Z,2.97
2018-03-15T13:23:30.211Z,2.83
2018-03-15T13:25:57.726Z,3.27
2018-03-15T13:28:25.306Z,2.90
2018-03-15T13:30:52.811Z,3.07
2018-03-15T13:33:20.756Z,3.00
2018-03-15T13:35:48.285Z,3.33
2018-03-15T13:38:15.815Z,2.70
2018-03-15T13:40:43.716Z,3.13
2018-03-15T13:43:11.340Z,3.07
2018-03-15T13:45:39.237Z,3.40
2018-03-15T13:48:06.876Z,2.93
2018-03-15T13:50:34.397Z,3.37
2018-03-15T13:53:01.948Z,3.33
2018-03-15T13:55:29.459Z,3.40
2018-03-15T13:57:57.019Z,3.93
2018-03-15T14:00:24.617Z,3.77
2018-03-15T14:02:52.131Z,3.50
2018-03-15T14:05:19.693Z,3.77
2018-03-15T14:07:47.250Z,3.87
2018-03-15T14:10:14.840Z,3.77
2018-03-15T14:12:42.814Z,3.67
2018-03-15T14:15:10.343Z,3.40
2018-03-15T14:17:37.877Z,4.00
2018-03-15T14:20:05.803Z,3.13
2018-03-15T14:22:33.512Z,3.70
2018-03-15T14:25:01.073Z,3.80
2018-03-15T14:27:28.600Z,3.47
2018-03-15T14:29:56.320Z,4.17
2018-03-15T14:32:23.855Z,2.97
2018-03-15T14:34:51.434Z,4.23
2018-03-15T14:37:19.090Z,3.67
2018-03-15T14:39:46.636Z,3.63
2018-03-15T14:42:14.319Z,3.80
2018-03-15T14:44:41.829Z,4.53
2018-03-15T14:47:09.844Z,4.00
2018-03-15T14:49:37.508Z,4.03
2018-03-15T14:52:05.041Z,4.57
2018-03-15T14:54:32.580Z,5.53
2018-03-15T14:57:00.509Z,3.97
2018-03-15T14:59:28.055Z,4.90
2018-03-15T15:01:55.597Z,4.13
2018-03-15T15:04:23.111Z,4.97
2018-03-15T15:06:51.129Z,4.77
2018-03-15T15:09:18.635Z,4.90
2018-03-15T15:11:46.200Z,4.33
2018-03-15T15:14:14.159Z,4.63
2018-03-15T15:16:41.911Z,4.57
2018-03-15T15:19:09.508Z,4.37
2018-03-15T15:21:37.453Z,4.77
2018-03-15T15:24:05.010Z,4.70
2018-03-15T15:26:32.978Z,4.10
2018-03-15T15:29:00.491Z,4.30
2018-03-15T15:31:28.074Z,4.90
2018-03-15T15:33:55.734Z,4.97
2018-03-15T15:36:23.280Z,5.20
2018-03-15T15:38:50.795Z,4.60
2018-03-15T15:41:18.703Z,4.00
2018-03-15T15:43:46.248Z,4.97
2018-03-15T15:46:13.769Z,4.90
2018-03-15T15:48:41.689Z,4.80
2018-03-15T15:51:09.205Z,5.00
2018-03-15T15:53:37.135Z,4.80
2018-03-15T15:56:05.071Z,4.10
2018-03-15T15:58:33.624Z,4.37
2018-03-15T16:01:01.153Z,5.00
2018-03-15T16:03:28.743Z,4.70
2018-03-15T16:05:56.267Z,5.00
2018-03-15T16:08:23.841Z,5.20
2018-03-15T16:10:51.762Z,5.03
2018-03-15T16:13:19.293Z,4.70
2018-03-15T16:15:46.825Z,5.17
2018-03-15T16:18:14.967Z,4.30
2018-03-15T16:20:42.483Z,4.83
2018-03-15T16:23:29.736Z,4.70
2018-03-15T16:29:18.666Z,4.70
2018-03-15T16:31:46.567Z,4.70
2018-03-15T16:34:14.094Z,4.53
2018-03-15T16:36:41.682Z,5.30
2018-03-15T16:39:09.212Z,4.20
2018-03-15T16:41:36.723Z,4.90
2018-03-15T16:44:04.264Z,5.43
2018-03-15T16:46:31.819Z,5.10
2018-03-15T16:48:59.348Z,4.70
2018-03-15T16:51:26.899Z,6.00
2018-03-15T16:53:54.815Z,5.23
2018-03-15T16:56:22.478Z,5.70
2018-03-15T16:58:50.003Z,6.17
2018-03-15T17:01:17.535Z,5.47
2018-03-15T17:03:45.079Z,5.00
2018-03-15T17:06:13.008Z,5.10
2018-03-15T17:08:40.519Z,5.50
2018-03-15T17:11:08.466Z,6.93
2018-03-15T17:13:36.385Z,5.43
2018-03-15T17:16:03.945Z,5.50
2018-03-15T17:18:31.470Z,5.30
2018-03-15T17:20:59.381Z,5.43
2018-03-15T17:23:26.916Z,6.03
2018-03-15T17:25:54.499Z,5.53
2018-03-15T17:28:22.065Z,6.20
2018-03-15T17:30:49.622Z,6.07
2018-03-15T17:33:17.170Z,6.03
2018-03-15T17:35:44.736Z,5.80
2018-03-15T17:38:12.288Z,6.00
2018-03-15T17:40:39.809Z,6.83
2018-03-15T17:43:07.776Z,6.07
2018-03-15T17:45:35.682Z,5.70
2018-03-15T17:48:03.461Z,5.97
2018-03-15T17:50:30.985Z,6.80
2018-03-15T17:52:58.576Z,5.60
2018-03-15T17:55:26.147Z,6.07
2018-03-15T17:57:53.663Z,6.97
2018-03-15T18:00:21.251Z,6.40
2018-03-15T18:02:48.773Z,6.20
2018-03-15T18:05:16.319Z,8.07
2018-03-15T18:07:43.839Z,6.67
2018-03-15T18:10:11.392Z,6.77
2018-03-15T18:12:39.256Z,7.47
2018-03-15T18:15:06.827Z,7.83
2018-03-15T18:17:34.349Z,7.70
2018-03-15T18:20:01.989Z,9.60
2018-03-15T18:22:29.535Z,7.30
2018-03-15T18:24:57.484Z,7.63
2018-03-15T18:27:25.000Z,7.63
2018-03-15T18:29:52.550Z,9.53
2018-03-15T18:32:20.056Z,7.50
2018-03-15T18:34:47.748Z,6.90
2018-03-15T18:37:16.259Z,7.63
2018-03-15T18:39:43.778Z,7.57
2018-03-15T18:42:11.721Z,9.00
2018-03-15T18:44:39.239Z,7.90
2018-03-15T18:47:07.788Z,7.33
2018-03-15T18:49:35.693Z,7.43
2018-03-15T18:52:03.241Z,6.87
2018-03-15T18:54:30.754Z,6.97
2018-03-15T18:56:58.871Z,7.37
2018-03-15T18:59:26.380Z,7.97
2018-03-15T19:01:54.395Z,7.27
2018-03-15T19:04:21.916Z,7.63
2018-03-15T19:06:50.026Z,7.40
2018-03-15T19:09:17.544Z,7.73
2018-03-15T19:11:45.653Z,7.00
2018-03-15T19:14:13.163Z,7.27
2018-03-15T19:16:40.772Z,6.60
2018-03-15T19:19:08.296Z,7.27
2018-03-15T19:21:36.246Z,8.57
2018-03-15T19:24:03.888Z,7.87
2018-03-15T19:26:31.387Z,7.70
2018-03-15T19:28:59.387Z,7.03
2018-03-15T19:31:26.910Z,7.20
2018-03-15T19:33:54.911Z,7.93
2018-03-15T19:36:22.475Z,7.53
2018-03-15T19:38:50.003Z,7.90
2018-03-15T19:41:18.006Z,11.47
2018-03-15T19:43:45.535Z,17.33
2018-03-15T19:46:13.052Z,11.03
2018-03-15T19:48:40.580Z,9.07
2018-03-15T19:51:08.096Z,9.37
2018-03-15T19:53:36.024Z,10.27
2018-03-15T19:56:03.535Z,9.20
2018-03-15T19:58:31.128Z,9.97
2018-03-15T20:00:58.642Z,11.00
2018-03-15T20:03:26.581Z,12.17
2018-03-15T20:05:54.204Z,9.30
2018-03-15T20:08:21.752Z,9.47
2018-03-15T20:10:49.290Z,8.53
2018-03-15T20:13:17.227Z,9.27
2018-03-15T20:15:49.667Z,10.40
2018-03-15T20:18:17.200Z,10.77
2018-03-15T20:20:45.182Z,10.13
2018-03-15T20:23:18.220Z,9.47
2018-03-15T20:25:45.830Z,8.87
2018-03-15T20:28:18.948Z,9.80
2018-03-15T20:30:46.499Z,8.90
2018-03-15T20:33:19.653Z,10.23
2018-03-15T20:35:47.188Z,10.10
2018-03-15T20:38:15.095Z,9.17
2018-03-15T20:40:48.391Z,10.00
2018-03-15T20:43:15.911Z,8.70
2018-03-15T20:45:49.508Z,9.10
2018-03-15T20:51:21.963Z,9.60
2018-03-15T20:53:49.515Z,8.97
2018-03-15T20:56:17.050Z,9.50
2018-03-15T20:58:44.559Z,9.87
2018-03-15T21:01:12.079Z,9.43
2018-03-15T21:03:39.596Z,12.57
2018-03-15T21:06:07.539Z,11.13
2018-03-15T21:08:35.056Z,10.00
2018-03-15T21:11:02.579Z,9.37
2018-03-15T21:13:30.498Z,10.57
2018-03-15T21:15:58.012Z,9.60
2018-03-15T21:18:25.940Z,9.10
2018-03-15T21:20:53.472Z,11.87
2018-03-15T21:23:21.103Z,9.87
2018-03-15T21:25:48.744Z,9.60
2018-03-15T21:28:16.671Z,8.73
2018-03-15T21:30:44.200Z,9.53
2018-03-15T21:33:11.719Z,9.43
2018-03-15T21:35:39.251Z,10.53
2018-03-15T21:38:06.799Z,10.37
2018-03-15T21:40:34.392Z,9.57
2018-03-15T21:43:02.205Z,8.87
2018-03-15T21:45:29.721Z,9.17
2018-03-15T21:47:57.774Z,9.53
2018-03-15T21:50:25.522Z,8.70
2018-03-15T21:52:53.079Z,8.77
2018-03-15T21:55:20.642Z,9.33
2018-03-15T21:57:48.150Z,8.70
2018-03-15T22:00:15.691Z,9.10
2018-03-15T22:02:43.593Z,8.47
2018-03-15T22:05:11.155Z,8.53
2018-03-15T22:07:38.717Z,8.10
2018-03-15T22:10:06.283Z,7.97
2018-03-15T22:12:33.842Z,7.87
2018-03-15T22:15:01.427Z,7.80
2018-03-15T22:17:28.991Z,7.33
2018-03-15T22:19:56.578Z,8.70
2018-03-15T22:22:24.519Z,8.57
2018-03-15T22:24:52.094Z,7.60
2018-03-15T22:27:20.209Z,8.93
2018-03-15T22:29:47.857Z,7.83
2018-03-15T22:32:15.427Z,8.63
2018-03-15T22:34:43.009Z,8.00
2018-03-15T22:37:10.566Z,7.83
2018-03-15T22:39:38.130Z,8.20
2018-03-15T22:42:05.682Z,7.67
2018-03-15T22:44:33.423Z,6.80
2018-03-15T22:47:01.006Z,7.10
2018-03-15T22:49:28.758Z,6.53
2018-03-15T22:51:56.316Z,6.33
2018-03-15T22:54:24.005Z,6.50
2018-03-15T22:56:51.565Z,5.93
2018-03-15T22:59:19.111Z,4.87
2018-03-15T23:01:46.673Z,6.23
2018-03-15T23:04:14.285Z,6.00
2018-03-15T23:06:41.849Z,4.97
2018-03-15T23:09:09.401Z,6.23
2018-03-15T23:11:36.969Z,5.23
2018-03-15T23:14:04.562Z,5.63
2018-03-15T23:16:32.238Z,7.23
2018-03-15T23:18:59.945Z,5.50
2018-03-15T23:21:27.918Z,5.63
2018-03-15T23:23:55.485Z,6.33
2018-03-15T23:26:23.066Z,5.80
2018-03-15T23:28:50.757Z,5.67
2018-03-15T23:31:18.339Z,5.00
2018-03-15T23:33:46.282Z,5.33
2018-03-15T23:36:13.947Z,5.27
2018-03-15T23:38:41.507Z,4.93
2018-03-15T23:41:09.141Z,5.57
2018-03-15T23:43:36.741Z,5.50
2018-03-15T23:46:04.697Z,4.07
2018-03-15T23:48:32.286Z,4.60
2018-03-15T23:50:59.972Z,3.90
2018-03-15T23:53:27.562Z,4.23
2018-03-15T23:55:55.528Z,3.80
2018-03-15T23:58:23.111Z,3.03
